createdAt,value
2023-02-14T00:02:00.060Z,6.65
2023-02-14T00:04:29.810Z,7.32
2023-02-14T00:06:58.180Z,6.88
2023-02-14T00:09:26.527Z,7.05
2023-02-14T00:12:00.309Z,6.40
2023-02-14T00:14:46.131Z,7.32
2023-02-14T00:17:14.471Z,6.63
2023-02-14T00:19:45.259Z,6.65
2023-02-14T00:22:13.568Z,6.53
2023-02-14T00:24:41.921Z,7.30
2023-02-14T00:27:13.006Z,6.40
2023-02-14T00:29:41.309Z,6.70
2023-02-14T00:32:09.663Z,6.50
2023-02-14T00:34:38.051Z,6.97
2023-02-14T00:37:10.615Z,6.90
2023-02-14T00:39:41.663Z,6.30
2023-02-14T00:42:10.098Z,6.57
2023-02-14T00:44:38.981Z,6.60
2023-02-14T00:47:07.416Z,6.55
2023-02-14T00:49:39.417Z,6.57
2023-02-14T00:52:07.726Z,6.45
2023-02-14T00:54:37.422Z,6.35
2023-02-14T00:57:05.868Z,5.75
2023-02-14T00:59:35.425Z,6.53
2023-02-14T01:02:03.720Z,6.60
2023-02-14T01:04:32.060Z,6.57
2023-02-14T01:07:00.369Z,6.30
2023-02-14T01:09:28.724Z,6.53
2023-02-14T01:11:58.530Z,6.60
2023-02-14T01:14:26.926Z,6.20
2023-02-14T01:16:55.388Z,6.13
2023-02-14T01:19:23.698Z,6.35
2023-02-14T01:21:56.567Z,7.05
2023-02-14T01:24:26.608Z,6.75
2023-02-14T01:26:54.956Z,6.75
2023-02-14T01:29:24.607Z,6.95
2023-02-14T01:31:55.791Z,6.55
2023-02-14T01:34:26.948Z,7.03
2023-02-14T01:36:55.420Z,5.72
2023-02-14T01:39:23.730Z,6.65
2023-02-14T01:41:53.931Z,6.50
2023-02-14T01:45:02.117Z,6.70
2023-02-14T01:47:32.140Z,6.28
2023-02-14T01:50:02.382Z,6.65
2023-02-14T01:52:38.611Z,5.90
2023-02-14T01:55:08.348Z,7.10
2023-02-14T01:57:38.184Z,7.03
2023-02-14T02:00:28.896Z,6.20
2023-02-14T02:02:57.339Z,6.90
2023-02-14T02:05:25.707Z,6.13
2023-02-14T02:07:54.140Z,6.28
2023-02-14T02:10:22.541Z,6.80
2023-02-14T02:12:50.844Z,6.93
2023-02-14T02:15:20.748Z,5.68
2023-02-14T02:17:53.025Z,5.50
2023-02-14T02:20:54.428Z,5.93
2023-02-14T02:23:32.949Z,5.97
2023-02-14T02:26:37.693Z,6.90
2023-02-14T02:29:19.531Z,6.22
2023-02-14T02:32:41.636Z,6.15
2023-02-14T02:35:50.425Z,6.28
2023-02-14T02:38:29.822Z,6.30
2023-02-14T02:41:08.057Z,5.95
2023-02-14T02:43:41.978Z,6.22
2023-02-14T02:46:32.389Z,6.80
2023-02-14T02:49:03.261Z,6.43
2023-02-14T02:51:53.787Z,6.35
2023-02-14T02:54:26.665Z,6.15
2023-02-14T02:56:56.020Z,6.60
2023-02-14T02:59:25.337Z,7.28
2023-02-14T03:01:57.413Z,5.80
2023-02-14T03:04:43.259Z,6.35
2023-02-14T03:07:30.797Z,6.22
2023-02-14T03:10:00.245Z,6.10
2023-02-14T03:12:53.635Z,6.10
2023-02-14T03:15:23.883Z,6.75
2023-02-14T03:17:57.619Z,6.43
2023-02-14T03:20:27.956Z,6.15
2023-02-14T03:22:59.581Z,6.32
2023-02-14T03:25:33.212Z,6.15
2023-02-14T03:28:05.724Z,5.85
2023-02-14T03:30:40.349Z,6.28
2023-02-14T03:33:11.853Z,5.78
2023-02-14T03:35:45.514Z,5.65
2023-02-14T03:38:16.222Z,6.30
2023-02-14T03:40:47.065Z,6.22
2023-02-14T03:43:16.610Z,6.50
2023-02-14T03:45:47.075Z,6.72
2023-02-14T03:48:16.023Z,6.22
2023-02-14T03:50:45.370Z,6.00
2023-02-14T03:53:15.693Z,6.53
2023-02-14T03:55:45.895Z,6.40
2023-02-14T03:58:17.184Z,6.00
2023-02-14T04:00:45.591Z,6.53
2023-02-14T04:03:14.562Z,6.13
2023-02-14T04:05:46.599Z,6.20
2023-02-14T04:08:21.254Z,5.68
2023-02-14T04:10:49.693Z,6.57
2023-02-14T04:13:18.004Z,5.97
2023-02-14T04:15:46.386Z,5.57
2023-02-14T04:18:32.183Z,5.85
2023-02-14T04:21:00.901Z,6.43
2023-02-14T04:23:30.808Z,6.00
2023-02-14T04:25:59.123Z,6.10
2023-02-14T04:28:27.484Z,6.82
2023-02-14T04:30:55.906Z,5.78
2023-02-14T04:33:24.296Z,6.03
2023-02-14T04:35:52.684Z,6.03
2023-02-14T04:38:21.028Z,6.63
2023-02-14T04:40:51.047Z,6.75
2023-02-14T04:43:19.396Z,6.10
2023-02-14T04:45:48.267Z,5.82
2023-02-14T04:48:16.571Z,6.68
2023-02-14T04:50:48.618Z,6.03
2023-02-14T04:53:19.249Z,6.38
2023-02-14T04:55:50.712Z,5.80
2023-02-14T04:58:19.017Z,5.70
2023-02-14T05:00:47.436Z,6.32
2023-02-14T05:03:15.757Z,5.65
2023-02-14T05:05:44.107Z,5.88
2023-02-14T05:08:12.472Z,6.32
2023-02-14T05:10:40.826Z,5.63
2023-02-14T05:13:10.506Z,5.65
2023-02-14T05:15:38.862Z,5.78
2023-02-14T05:18:07.258Z,5.95
2023-02-14T05:20:35.610Z,6.43
2023-02-14T05:23:05.168Z,6.55
2023-02-14T05:25:33.550Z,5.40
2023-02-14T05:28:01.885Z,6.00
2023-02-14T05:30:31.712Z,5.70
2023-02-14T05:33:00.133Z,5.90
2023-02-14T05:35:28.638Z,5.72
2023-02-14T05:37:56.944Z,5.68
2023-02-14T05:42:53.125Z,5.75
2023-02-14T05:45:21.540Z,6.15
2023-02-14T05:47:51.372Z,6.22
2023-02-14T05:50:20.105Z,5.85
2023-02-14T05:52:48.413Z,4.72
2023-02-14T05:55:16.794Z,5.78
2023-02-14T05:57:45.188Z,6.22
2023-02-14T06:00:14.869Z,6.25
2023-02-14T06:02:43.295Z,5.45
2023-02-14T06:05:12.980Z,5.40
2023-02-14T06:07:43.156Z,5.15
2023-02-14T06:10:12.719Z,5.65
2023-02-14T06:12:41.020Z,6.10
2023-02-14T06:15:09.576Z,6.05
2023-02-14T06:17:37.880Z,5.78
2023-02-14T06:20:07.512Z,5.78
2023-02-14T06:22:37.285Z,5.85
2023-02-14T06:25:06.272Z,5.57
2023-02-14T06:27:34.571Z,5.65
2023-02-14T06:30:02.932Z,6.72
2023-02-14T06:32:31.254Z,5.15
2023-02-14T06:34:59.668Z,6.50
2023-02-14T06:37:27.967Z,5.78
2023-02-14T06:39:57.685Z,5.85
2023-02-14T06:42:26.159Z,5.78
2023-02-14T06:44:54.532Z,5.45
2023-02-14T06:47:22.829Z,5.75
2023-02-14T06:49:51.187Z,6.00
2023-02-14T06:52:19.523Z,5.97
2023-02-14T06:54:47.851Z,6.30
2023-02-14T06:57:17.492Z,6.03
2023-02-14T06:59:45.852Z,5.60
2023-02-14T07:02:14.251Z,5.80
2023-02-14T07:04:42.574Z,5.70
2023-02-14T07:07:10.882Z,6.32
2023-02-14T07:09:39.300Z,6.10
2023-02-14T07:12:08.037Z,6.50
2023-02-14T07:14:37.784Z,6.10
2023-02-14T07:17:06.228Z,6.85
2023-02-14T07:19:34.564Z,6.35
2023-02-14T07:22:02.911Z,6.40
2023-02-14T07:24:31.257Z,6.35
2023-02-14T07:26:59.710Z,6.25
2023-02-14T07:29:28.171Z,6.97
2023-02-14T07:31:57.991Z,7.13
2023-02-14T07:34:27.243Z,5.85
2023-02-14T07:36:55.704Z,7.05
2023-02-14T07:39:24.097Z,7.20
2023-02-14T07:41:52.443Z,7.80
2023-02-14T07:44:20.870Z,6.75
2023-02-14T07:46:49.229Z,7.15
2023-02-14T07:49:18.920Z,7.75
2023-02-14T07:51:47.288Z,7.25
2023-02-14T07:54:15.610Z,7.88
2023-02-14T07:56:43.917Z,7.75
2023-02-14T07:59:12.273Z,7.55
2023-02-14T08:01:40.635Z,8.20
2023-02-14T08:04:09.050Z,7.57
2023-02-14T08:06:38.763Z,8.10
2023-02-14T08:09:07.161Z,8.40
2023-02-14T08:11:53.233Z,8.18
2023-02-14T08:14:21.768Z,7.45
2023-02-14T08:16:50.059Z,8.10
2023-02-14T08:19:18.404Z,8.13
2023-02-14T08:21:48.059Z,8.32
2023-02-14T08:24:16.513Z,8.15
2023-02-14T08:26:47.527Z,8.25
2023-02-14T08:29:16.913Z,8.48
2023-02-14T08:31:45.337Z,9.15
2023-02-14T08:34:13.735Z,8.20
2023-02-14T08:36:42.052Z,8.88
2023-02-14T08:39:11.747Z,8.52
2023-02-14T08:41:40.113Z,8.55
2023-02-14T08:44:08.541Z,8.40
2023-02-14T08:46:37.351Z,9.00
2023-02-14T08:49:06.099Z,8.43
2023-02-14T08:51:34.462Z,8.05
2023-02-14T08:54:02.817Z,8.80
2023-02-14T08:56:33.047Z,8.32
2023-02-14T08:59:01.501Z,8.50
2023-02-14T09:01:29.932Z,7.72
2023-02-14T09:03:58.499Z,7.60
2023-02-14T09:06:26.858Z,8.30
2023-02-14T09:08:55.283Z,7.40
2023-02-14T09:11:24.639Z,7.38
2023-02-14T09:13:54.461Z,7.22
2023-02-14T09:16:23.154Z,6.80
2023-02-14T09:18:52.645Z,6.72
2023-02-14T09:21:22.119Z,7.25
2023-02-14T09:23:50.598Z,7.00
2023-02-14T09:26:18.953Z,7.78
2023-02-14T09:28:48.151Z,7.78
2023-02-14T09:31:19.045Z,8.27
2023-02-14T09:34:05.671Z,8.73
2023-02-14T09:36:51.564Z,9.00
2023-02-14T09:39:19.943Z,10.27
2023-02-14T09:42:08.572Z,9.27
2023-02-14T09:44:38.545Z,9.13
2023-02-14T09:47:12.470Z,9.32
2023-02-14T09:49:40.928Z,9.77
2023-02-14T09:52:11.876Z,9.77
2023-02-14T09:54:40.542Z,8.88
2023-02-14T09:57:11.813Z,8.90
2023-02-14T09:59:43.631Z,10.43
2023-02-14T10:02:26.316Z,12.82
2023-02-14T10:04:58.734Z,14.23
2023-02-14T10:07:28.605Z,14.35
2023-02-14T10:09:58.864Z,13.25
2023-02-14T10:12:29.290Z,14.63
2023-02-14T10:14:58.541Z,14.63
2023-02-14T10:17:32.411Z,13.52
2023-02-14T10:20:02.404Z,12.82
2023-02-14T10:22:34.166Z,12.50
2023-02-14T10:25:04.664Z,13.43
2023-02-14T10:27:34.551Z,12.73
2023-02-14T10:30:03.519Z,13.30
2023-02-14T10:32:36.413Z,13.65
2023-02-14T10:35:06.979Z,12.73
2023-02-14T10:37:46.841Z,13.15
2023-02-14T10:40:30.107Z,13.45
2023-02-14T10:43:00.450Z,13.75
2023-02-14T10:45:32.145Z,13.05
2023-02-14T10:48:04.018Z,12.75
2023-02-14T10:50:35.536Z,14.05
2023-02-14T10:53:08.557Z,12.52
2023-02-14T10:55:44.097Z,12.95
2023-02-14T10:58:14.479Z,12.02
2023-02-14T11:00:54.049Z,12.48
2023-02-14T11:03:23.882Z,12.93
2023-02-14T11:05:52.253Z,11.70
2023-02-14T11:08:25.452Z,12.38
2023-02-14T11:10:54.069Z,12.38
2023-02-14T11:13:33.187Z,12.32
2023-02-14T11:16:03.355Z,12.15
2023-02-14T11:18:35.825Z,12.88
2023-02-14T11:21:09.711Z,12.73
2023-02-14T11:23:39.940Z,13.18
2023-02-14T11:26:22.400Z,12.15
2023-02-14T11:28:54.028Z,11.93
2023-02-14T11:31:30.286Z,13.15
2023-02-14T11:34:00.342Z,13.10
2023-02-14T11:36:28.951Z,12.18
2023-02-14T11:38:59.034Z,12.45
2023-02-14T11:41:27.368Z,13.95
2023-02-14T11:43:55.684Z,12.90
2023-02-14T11:46:27.759Z,13.60
2023-02-14T11:48:57.913Z,12.70
2023-02-14T11:51:32.223Z,12.48
2023-02-14T11:54:04.752Z,12.70
2023-02-14T11:56:49.909Z,12.32
2023-02-14T11:59:29.090Z,12.60
2023-02-14T12:01:58.902Z,13.00
2023-02-14T12:04:32.801Z,12.10
2023-02-14T12:07:18.986Z,14.37
2023-02-14T12:09:47.788Z,11.80
2023-02-14T12:12:20.874Z,12.60
2023-02-14T12:14:49.260Z,11.52
2023-02-14T12:17:26.813Z,11.93
2023-02-14T12:19:56.614Z,12.02
2023-02-14T12:22:28.903Z,12.20
2023-02-14T12:25:00.563Z,12.93
2023-02-14T12:27:30.840Z,13.45
2023-02-14T12:30:02.014Z,12.27
2023-02-14T12:32:31.510Z,11.52
2023-02-14T12:35:03.198Z,12.10
2023-02-14T12:37:38.720Z,12.90
2023-02-14T12:40:14.158Z,12.15
2023-02-14T12:43:00.710Z,11.88
2023-02-14T12:45:37.151Z,11.63
2023-02-14T12:48:10.133Z,13.60
2023-02-14T12:50:42.462Z,12.52
2023-02-14T12:53:28.719Z,11.48
2023-02-14T12:56:02.386Z,11.93
2023-02-14T12:58:38.236Z,11.63
2023-02-14T13:01:21.775Z,12.27
2023-02-14T13:04:30.507Z,11.38
2023-02-14T13:07:01.444Z,11.48
2023-02-14T13:09:35.867Z,11.07
2023-02-14T13:12:11.469Z,11.48
2023-02-14T13:14:51.443Z,11.98
2023-02-14T13:17:23.485Z,11.43
2023-02-14T13:19:55.003Z,11.32
2023-02-14T13:22:23.955Z,12.27
2023-02-14T13:24:56.485Z,11.02
2023-02-14T13:27:27.765Z,12.38
2023-02-14T13:29:57.715Z,10.98
2023-02-14T13:32:28.407Z,11.43
2023-02-14T13:34:56.772Z,12.30
2023-02-14T13:37:27.245Z,11.90
2023-02-14T13:39:58.152Z,11.30
2023-02-14T13:42:52.177Z,11.32
2023-02-14T13:45:55.260Z,12.07
2023-02-14T13:48:24.583Z,11.73
2023-02-14T13:50:54.825Z,12.40
2023-02-14T13:53:41.194Z,11.48
2023-02-14T13:56:33.736Z,12.52
2023-02-14T13:59:04.501Z,12.07
2023-02-14T14:01:38.884Z,12.40
2023-02-14T14:04:08.433Z,11.32
2023-02-14T14:07:15.954Z,9.82
2023-02-14T14:10:00.402Z,10.60
2023-02-14T14:12:43.273Z,10.27
2023-02-14T14:15:13.532Z,9.07
2023-02-14T14:17:45.515Z,9.75
2023-02-14T14:20:45.916Z,9.38
2023-02-14T14:23:31.872Z,8.73
2023-02-14T14:26:01.108Z,8.98
2023-02-14T14:28:32.693Z,9.32
2023-02-14T14:31:01.061Z,9.93
2023-02-14T14:33:30.423Z,8.75
2023-02-14T14:36:00.151Z,8.90
2023-02-14T14:38:28.731Z,8.98
2023-02-14T14:40:57.072Z,9.88
2023-02-14T14:43:30.482Z,9.80
2023-02-14T14:45:59.622Z,9.32
2023-02-14T14:48:30.754Z,9.10
2023-02-14T14:50:59.418Z,9.10
2023-02-14T14:53:29.206Z,9.05
2023-02-14T14:55:57.585Z,9.45
2023-02-14T14:58:38.195Z,9.32
2023-02-14T15:01:07.466Z,9.68
2023-02-14T15:03:35.882Z,9.18
2023-02-14T15:06:07.237Z,9.50
2023-02-14T15:08:35.607Z,9.15
2023-02-14T15:11:07.313Z,9.10
2023-02-14T15:13:50.647Z,8.38
2023-02-14T15:16:23.369Z,8.95
2023-02-14T15:18:52.014Z,9.63
2023-02-14T15:21:20.337Z,9.55
2023-02-14T15:23:48.798Z,9.48
2023-02-14T15:26:18.765Z,9.95
2023-02-14T15:28:54.623Z,10.13
2023-02-14T15:31:23.108Z,10.63
2023-02-14T15:33:51.527Z,10.45
2023-02-14T15:36:21.352Z,10.32
2023-02-14T15:38:49.715Z,10.43
2023-02-14T15:41:20.000Z,10.13
2023-02-14T15:43:53.831Z,10.20
2023-02-14T15:46:29.943Z,10.65
2023-02-14T15:49:00.750Z,9.52
2023-02-14T15:51:30.387Z,10.27
2023-02-14T15:53:59.434Z,9.88
2023-02-14T15:56:29.018Z,10.82
2023-02-14T15:59:03.357Z,10.25
2023-02-14T16:01:32.002Z,9.68
2023-02-14T16:04:01.409Z,9.73
2023-02-14T16:06:35.037Z,9.98
2023-02-14T16:09:03.818Z,10.82
2023-02-14T16:11:35.291Z,10.90
2023-02-14T16:14:25.972Z,11.48
2023-02-14T16:16:58.093Z,10.57
2023-02-14T16:19:33.703Z,11.30
2023-02-14T16:22:02.060Z,11.43
2023-02-14T16:24:30.578Z,11.00
2023-02-14T16:27:00.440Z,11.85
2023-02-14T16:29:30.088Z,10.80
2023-02-14T16:32:15.798Z,10.70
2023-02-14T16:34:47.163Z,10.70
2023-02-14T16:37:22.414Z,10.63
2023-02-14T16:39:51.232Z,11.35
2023-02-14T16:42:19.589Z,10.75
2023-02-14T16:44:49.422Z,10.80
2023-02-14T16:47:18.549Z,11.15
2023-02-14T16:49:46.902Z,11.27
2023-02-14T16:52:16.234Z,10.57
2023-02-14T16:54:44.720Z,10.48
2023-02-14T16:57:17.478Z,11.93
2023-02-14T16:59:45.840Z,11.60
2023-02-14T17:02:16.318Z,11.30
2023-02-14T17:04:44.828Z,11.75
2023-02-14T17:07:13.422Z,12.02
2023-02-14T17:09:44.663Z,12.93
2023-02-14T17:12:16.398Z,13.80
2023-02-14T17:14:45.670Z,12.05
2023-02-14T17:17:15.336Z,15.73
2023-02-14T17:19:43.656Z,17.75
2023-02-14T17:22:13.486Z,19.95
2023-02-14T17:24:42.040Z,20.13
2023-02-14T17:27:10.410Z,21.00
2023-02-14T17:29:38.740Z,20.63
2023-02-14T17:32:07.194Z,20.67
2023-02-14T17:34:36.954Z,20.55
2023-02-14T17:37:05.351Z,21.13
2023-02-14T17:39:33.782Z,21.33
2023-02-14T17:42:02.162Z,19.90
2023-02-14T17:44:32.487Z,19.52
2023-02-14T17:47:00.891Z,19.92
2023-02-14T17:49:29.364Z,17.92
2023-02-14T17:51:59.081Z,18.17
2023-02-14T17:54:27.510Z,20.30
2023-02-14T17:56:55.945Z,18.58
2023-02-14T17:59:24.395Z,18.13
2023-02-14T18:01:52.730Z,18.48
2023-02-14T18:04:21.038Z,18.55
2023-02-14T18:06:49.420Z,19.15
2023-02-14T18:09:20.297Z,17.15
2023-02-14T18:11:49.954Z,19.25
2023-02-14T18:14:18.284Z,17.98
2023-02-14T18:16:46.733Z,17.88
2023-02-14T18:19:15.769Z,25.27
2023-02-14T18:21:44.893Z,25.52
2023-02-14T18:24:15.139Z,24.40
2023-02-14T18:26:44.912Z,23.05
2023-02-14T18:29:13.411Z,21.95
2023-02-14T18:31:42.951Z,20.90
2023-02-14T18:34:11.449Z,20.35
2023-02-14T18:36:40.919Z,18.58
2023-02-14T18:39:09.498Z,19.02
2023-02-14T18:41:37.964Z,19.17
2023-02-14T18:44:07.972Z,17.95
2023-02-14T18:46:36.638Z,17.80
2023-02-14T18:49:05.915Z,17.38
2023-02-14T18:51:35.112Z,17.80
2023-02-14T18:54:04.431Z,19.48
2023-02-14T18:56:33.701Z,17.05
2023-02-14T18:59:03.181Z,18.63
2023-02-14T19:01:33.805Z,18.85
2023-02-14T19:04:02.315Z,18.25
2023-02-14T19:06:31.467Z,17.85
2023-02-14T19:09:00.003Z,18.33
2023-02-14T19:11:31.307Z,18.27
2023-02-14T19:14:00.706Z,17.02
2023-02-14T19:16:29.934Z,17.20
2023-02-14T19:18:59.833Z,17.30
2023-02-14T19:21:30.472Z,19.23
2023-02-14T19:23:58.999Z,21.27
2023-02-14T19:26:29.104Z,20.52
2023-02-14T19:28:58.848Z,19.23
2023-02-14T19:31:27.475Z,18.42
2023-02-14T19:33:55.864Z,16.35
2023-02-14T19:36:25.623Z,17.25
2023-02-14T19:38:54.216Z,16.23
2023-02-14T19:41:23.608Z,15.23
2023-02-14T19:43:52.560Z,15.27
2023-02-14T19:46:21.455Z,16.25
2023-02-14T19:48:49.882Z,15.95
2023-02-14T19:51:19.684Z,15.98
2023-02-14T19:53:49.722Z,16.60
2023-02-14T19:56:19.943Z,16.13
2023-02-14T19:58:48.504Z,17.80
2023-02-14T20:01:23.446Z,20.50
2023-02-14T20:03:52.351Z,18.65
2023-02-14T20:06:21.298Z,18.00
2023-02-14T20:08:51.018Z,17.95
2023-02-14T20:11:25.832Z,18.20
2023-02-14T20:13:55.078Z,16.65
2023-02-14T20:16:23.463Z,16.85
2023-02-14T20:18:51.902Z,15.40
2023-02-14T20:21:24.086Z,17.52
2023-02-14T20:23:53.747Z,16.92
2023-02-14T20:26:22.048Z,15.75
2023-02-14T20:28:50.885Z,16.05
2023-02-14T20:31:20.099Z,15.25
2023-02-14T20:33:50.464Z,15.88
2023-02-14T20:36:18.830Z,15.73
2023-02-14T20:38:47.141Z,15.95
2023-02-14T20:41:17.461Z,16.48
2023-02-14T20:43:45.845Z,15.93
2023-02-14T20:46:14.327Z,15.13
2023-02-14T20:48:42.704Z,15.18
2023-02-14T20:51:12.248Z,15.35
2023-02-14T20:53:40.691Z,17.10
2023-02-14T20:56:09.120Z,16.23
2023-02-14T20:58:39.022Z,15.00
2023-02-14T21:01:08.177Z,16.38
2023-02-14T21:03:37.222Z,15.55
2023-02-14T21:06:06.593Z,16.15
2023-02-14T21:08:34.960Z,17.77
2023-02-14T21:11:03.583Z,18.55
2023-02-14T21:13:32.047Z,16.33
2023-02-14T21:16:04.060Z,17.25
2023-02-14T21:18:33.171Z,17.38
2023-02-14T21:21:05.810Z,18.02
2023-02-14T21:23:34.180Z,17.27
2023-02-14T21:26:02.506Z,17.08
2023-02-14T21:28:30.924Z,17.65
2023-02-14T21:31:06.937Z,16.42
2023-02-14T21:33:35.484Z,16.50
2023-02-14T21:36:07.509Z,17.45
2023-02-14T21:38:35.988Z,16.80
2023-02-14T21:41:05.083Z,16.85
2023-02-14T21:43:34.787Z,15.57
2023-02-14T21:46:05.010Z,16.45
2023-02-14T21:48:52.946Z,16.42
2023-02-14T21:51:21.509Z,17.27
2023-02-14T21:53:50.142Z,16.50
2023-02-14T21:56:19.753Z,15.43
2023-02-14T21:58:48.473Z,14.95
2023-02-14T22:01:17.503Z,16.80
2023-02-14T22:03:47.219Z,15.85
2023-02-14T22:06:15.648Z,15.82
2023-02-14T22:08:44.032Z,14.68
2023-02-14T22:11:13.601Z,14.73
2023-02-14T22:13:42.167Z,14.90
2023-02-14T22:16:11.484Z,13.85
2023-02-14T22:18:40.033Z,15.60
2023-02-14T22:21:10.821Z,15.05
2023-02-14T22:23:39.295Z,15.18
2023-02-14T22:26:11.625Z,14.95
2023-02-14T22:28:40.095Z,14.38
2023-02-14T22:31:08.740Z,15.55
2023-02-14T22:33:37.994Z,15.30
2023-02-14T22:36:07.046Z,14.73
2023-02-14T22:38:36.838Z,14.75
2023-02-14T22:41:06.234Z,14.95
2023-02-14T22:43:34.837Z,15.30
2023-02-14T22:46:04.782Z,14.27
2023-02-14T22:48:33.652Z,14.75
2023-02-14T22:51:09.263Z,15.45
2023-02-14T22:53:39.020Z,15.38
2023-02-14T22:56:11.924Z,14.32
2023-02-14T22:58:40.312Z,15.10
2023-02-14T23:01:13.318Z,15.43
2023-02-14T23:03:41.757Z,15.13
2023-02-14T23:06:10.471Z,14.48
2023-02-14T23:08:41.267Z,14.30
2023-02-14T23:11:10.243Z,15.05
2023-02-14T23:13:56.223Z,15.20
2023-02-14T23:16:53.800Z,15.00
2023-02-14T23:19:40.327Z,14.47
2023-02-14T23:22:11.017Z,15.02
2023-02-14T23:24:40.735Z,15.38
2023-02-14T23:27:09.573Z,15.15
2023-02-14T23:29:37.959Z,14.13
2023-02-14T23:32:06.713Z,15.45
2023-02-14T23:34:35.939Z,15.68
2023-02-14T23:37:04.349Z,14.30
2023-02-14T23:39:35.723Z,14.98
2023-02-14T23:42:05.592Z,14.70
2023-02-14T23:44:34.078Z,14.38
2023-02-14T23:47:04.225Z,14.85
2023-02-14T23:49:33.084Z,14.20
2023-02-14T23:52:01.455Z,15.00
2023-02-14T23:54:29.832Z,14.80
2023-02-14T23:56:58.697Z,14.60
2023-02-14T23:59:28.510Z,13.90
